Time;durP1;ratioP1;P1;durP2;ratioP2;P2;SDS_P1;SDS_P2;PMS_P1;PMS_P2;Temp;Humidity;BMP_temperature;BMP_pressure;BME280_temperature;BME280_humidity;BME280_pressure;Samples;Min_cycle;Max_cycle;Signal;HPM_P1;HPM_P2
2022/07/19 00:00:26;;;;;;;3.63;1.05;;;22.90;67.20;;;;;;5090935;27;46631;-72
2022/07/19 00:02:54;;;;;;;3.70;1.00;;;22.90;67.30;;;;;;5087776;27;45368;-74
2022/07/19 00:05:21;;;;;;;1.75;0.77;;;22.90;67.40;;;;;;5086859;27;45373;-72
2022/07/19 00:07:49;;;;;;;0.80;0.60;;;22.90;67.50;;;;;;5092856;27;45569;-72
2022/07/19 00:10:20;;;;;;;2.05;1.10;;;22.90;67.60;;;;;;5094846;27;47531;-72
2022/07/19 00:12:47;;;;;;;1.95;1.00;;;22.90;67.50;;;;;;5085288;27;45591;-71
2022/07/19 00:15:16;;;;;;;1.33;0.98;;;22.80;68.00;;;;;;5089743;27;45369;-72
2022/07/19 00:17:43;;;;;;;2.78;1.20;;;22.90;67.60;;;;;;5094170;27;45365;-72
2022/07/19 00:20:12;;;;;;;1.75;0.90;;;22.80;67.80;;;;;;5091969;27;46600;-72
2022/07/19 00:22:39;;;;;;;1.10;1.00;;;22.90;67.90;;;;;;5093406;27;45437;-72
2022/07/19 00:25:09;;;;;;;1.60;0.80;;;22.90;68.00;;;;;;5092852;27;45346;-72
2022/07/19 00:27:36;;;;;;;2.60;1.02;;;22.80;68.00;;;;;;5092629;27;45454;-72
2022/07/19 00:30:04;;;;;;;2.25;0.90;;;22.90;68.10;;;;;;5095185;27;45450;-72
2022/07/19 00:32:31;;;;;;;1.08;0.93;;;22.90;67.90;;;;;;5093136;27;45583;-72
2022/07/19 00:34:58;;;;;;;1.20;0.90;;;22.90;67.50;;;;;;5089561;27;45482;-72
2022/07/19 00:37:24;;;;;;;3.75;1.02;;;22.90;67.40;;;;;;5092115;27;45426;-73
2022/07/19 00:39:51;;;;;;;3.67;0.80;;;22.90;67.50;;;;;;5094907;27;46864;-72
2022/07/19 00:42:20;;;;;;;1.25;0.68;;;22.90;67.40;;;;;;5095666;27;45336;-71
2022/07/19 00:44:46;;;;;;;2.45;1.10;;;22.90;67.50;;;;;;5098406;27;45550;-72
2022/07/19 00:47:13;;;;;;;0.75;0.68;;;22.90;67.40;;;;;;5097135;27;45431;-72
2022/07/19 00:49:40;;;;;;;1.95;0.80;;;22.90;67.40;;;;;;5094036;27;45451;-72
2022/07/19 00:52:08;;;;;;;1.63;1.10;;;22.90;67.40;;;;;;5095089;27;45271;-72
2022/07/19 00:54:36;;;;;;;1.65;0.90;;;22.90;67.40;;;;;;5095443;27;45436;-72
2022/07/19 00:57:05;;;;;;;1.13;0.90;;;22.90;67.40;;;;;;5094934;27;45622;-73
2022/07/19 00:59:35;;;;;;;0.85;0.73;;;22.90;67.50;;;;;;5095927;27;45476;-72
2022/07/19 01:02:03;;;;;;;1.40;1.10;;;22.90;67.70;;;;;;5091670;27;45372;-72
2022/07/19 01:04:30;;;;;;;0.98;0.85;;;22.90;67.50;;;;;;5094365;27;45689;-72
2022/07/19 01:06:56;;;;;;;1.75;0.80;;;22.90;67.50;;;;;;5097078;27;45533;-71
2022/07/19 01:09:23;;;;;;;2.05;1.02;;;22.90;67.50;;;;;;5094293;27;46457;-72
2022/07/19 01:11:50;;;;;;;1.40;0.88;;;22.90;67.60;;;;;;5096126;27;45269;-72
2022/07/19 01:14:17;;;;;;;1.83;1.00;;;22.90;67.60;;;;;;5099069;27;45431;-72
2022/07/19 01:16:46;;;;;;;1.42;0.90;;;22.90;67.70;;;;;;5095905;27;45707;-72
2022/07/19 01:19:14;;;;;;;1.58;1.00;;;22.90;67.70;;;;;;5095324;27;46347;-72
2022/07/19 01:21:42;;;;;;;2.05;0.98;;;22.90;68.00;;;;;;5094298;27;45593;-72
2022/07/19 01:24:09;;;;;;;1.85;0.80;;;22.90;68.20;;;;;;5095270;27;45446;-71
2022/07/19 01:26:36;;;;;;;2.10;0.93;;;22.90;68.90;;;;;;5092879;27;45651;-73
2022/07/19 01:29:04;;;;;;;1.50;1.00;;;22.90;68.50;;;;;;5094571;27;46100;-71
2022/07/19 01:31:31;;;;;;;1.90;1.00;;;22.90;68.50;;;;;;5089357;27;45900;-72
2022/07/19 01:33:57;;;;;;;3.50;1.00;;;22.90;68.60;;;;;;5087728;27;45453;-72
2022/07/19 01:36:24;;;;;;;1.60;0.90;;;22.90;68.70;;;;;;5107482;27;45505;-72
2022/07/19 01:38:52;;;;;;;1.50;0.90;;;22.90;68.20;;;;;;5107005;27;46776;-72
2022/07/19 01:41:19;;;;;;;1.50;1.10;;;22.90;68.10;;;;;;5104328;27;45340;-72
2022/07/19 01:43:46;;;;;;;1.88;1.02;;;22.90;68.00;;;;;;5097680;27;45359;-72
2022/07/19 01:46:13;;;;;;;1.75;0.93;;;22.90;68.00;;;;;;5099957;27;45306;-72
2022/07/19 01:48:39;;;;;;;0.75;0.75;;;22.90;67.90;;;;;;5099783;27;45338;-72
2022/07/19 01:51:06;;;;;;;1.27;1.00;;;22.90;67.80;;;;;;5095373;27;45756;-71
2022/07/19 01:53:33;;;;;;;1.52;1.10;;;22.90;67.90;;;;;;5100546;27;45310;-73
2022/07/19 01:56:05;;;;;;;1.88;1.20;;;22.90;67.80;;;;;;5103092;27;45444;-72
2022/07/19 01:58:32;;;;;;;1.40;0.80;;;22.90;67.90;;;;;;5101873;27;45394;-72
2022/07/19 02:00:58;;;;;;;2.25;0.90;;;22.90;68.00;;;;;;5093622;27;45336;-72
2022/07/19 02:03:25;;;;;;;1.77;1.30;;;22.90;68.00;;;;;;5095729;27;45321;-72
2022/07/19 02:05:52;;;;;;;2.08;1.38;;;22.90;68.20;;;;;;5099004;27;45498;-72
2022/07/19 02:08:19;;;;;;;3.42;1.30;;;22.90;68.50;;;;;;5096774;27;47750;-72
2022/07/19 02:10:46;;;;;;;1.73;1.00;;;22.90;68.50;;;;;;5100003;27;45407;-73
2022/07/19 02:13:14;;;;;;;1.85;1.10;;;22.90;68.50;;;;;;5096905;27;45372;-72
2022/07/19 02:15:41;;;;;;;2.03;1.20;;;22.90;68.60;;;;;;5094659;27;45331;-72
2022/07/19 02:18:08;;;;;;;1.88;1.10;;;22.90;68.60;;;;;;5092523;27;47393;-72
2022/07/19 02:20:34;;;;;;;1.23;0.98;;;22.90;68.60;;;;;;5090780;27;45598;-72
2022/07/19 02:23:01;;;;;;;1.40;1.00;;;22.90;68.60;;;;;;5101968;27;45468;-72
2022/07/19 02:25:28;;;;;;;1.55;1.00;;;22.90;68.70;;;;;;5100802;27;45496;-72
2022/07/19 02:27:55;;;;;;;1.80;0.90;;;22.90;68.60;;;;;;5105025;27;46409;-71
2022/07/19 02:30:23;;;;;;;1.77;1.30;;;22.90;68.50;;;;;;5102935;27;45421;-72
2022/07/19 02:32:50;;;;;;;1.77;1.23;;;22.90;68.50;;;;;;5100675;27;45375;-72
2022/07/19 02:35:18;;;;;;;1.83;0.90;;;22.90;68.50;;;;;;5105139;27;45639;-72
2022/07/19 02:37:45;;;;;;;1.15;1.00;;;22.90;68.50;;;;;;5096767;27;45320;-72
2022/07/19 02:40:13;;;;;;;1.45;0.95;;;22.90;68.60;;;;;;5103872;27;45850;-72
2022/07/19 02:42:39;;;;;;;1.52;1.02;;;22.90;68.60;;;;;;5100559;27;45323;-72
2022/07/19 02:45:07;;;;;;;1.40;1.15;;;22.90;68.50;;;;;;5096493;27;45503;-72
2022/07/19 02:47:35;;;;;;;2.10;1.20;;;22.90;68.60;;;;;;5100041;27;46532;-71
2022/07/19 02:50:02;;;;;;;1.55;1.20;;;22.90;68.70;;;;;;5111252;27;45450;-71
2022/07/19 02:52:30;;;;;;;1.10;1.00;;;22.90;68.60;;;;;;5100658;27;45311;-71
2022/07/19 02:54:57;;;;;;;1.00;0.90;;;22.90;68.70;;;;;;5086005;27;45384;-72
2022/07/19 02:57:24;;;;;;;1.20;0.90;;;22.90;68.70;;;;;;5098594;27;46619;-71
2022/07/19 02:59:51;;;;;;;1.00;0.90;;;22.90;68.70;;;;;;5099330;27;45492;-71
2022/07/19 03:02:18;;;;;;;1.95;1.00;;;22.90;68.70;;;;;;5104612;27;45372;-71
2022/07/19 03:04:46;;;;;;;1.27;1.10;;;22.90;68.70;;;;;;5094891;27;45402;-71
2022/07/19 03:07:13;;;;;;;1.70;1.30;;;22.90;68.90;;;;;;5097698;27;45473;-72
2022/07/19 03:09:40;;;;;;;1.48;1.10;;;22.90;68.80;;;;;;5091024;27;46381;-71
2022/07/19 03:12:07;;;;;;;1.65;1.00;;;22.90;69.00;;;;;;5099973;27;45268;-71
2022/07/19 03:14:34;;;;;;;2.63;1.00;;;22.90;68.90;;;;;;5098633;27;45372;-71
2022/07/19 03:17:00;;;;;;;1.30;0.88;;;22.80;68.80;;;;;;5099363;27;46361;-70
2022/07/19 03:19:27;;;;;;;1.20;1.08;;;22.90;68.90;;;;;;5098552;27;45822;-71
2022/07/19 03:21:55;;;;;;;0.90;0.80;;;22.90;68.90;;;;;;5102691;27;45510;-71
2022/07/19 03:24:22;;;;;;;1.90;0.95;;;22.80;68.80;;;;;;5104501;27;45414;-71
2022/07/19 03:26:49;;;;;;;1.33;0.80;;;22.80;68.80;;;;;;5103366;27;46530;-71
2022/07/19 03:29:16;;;;;;;1.38;1.08;;;22.80;68.80;;;;;;5096809;27;45450;-71
2022/07/19 03:31:43;;;;;;;2.20;1.13;;;22.90;68.80;;;;;;5104442;27;45459;-71
2022/07/19 03:34:09;;;;;;;1.00;0.90;;;22.80;68.70;;;;;;5098498;27;45358;-71
2022/07/19 03:36:36;;;;;;;3.05;1.08;;;22.80;68.60;;;;;;5102728;27;48560;-71
2022/07/19 03:39:05;;;;;;;1.85;1.10;;;22.90;68.60;;;;;;5102747;27;45257;-71
2022/07/19 03:41:32;;;;;;;1.05;0.90;;;22.90;68.50;;;;;;5097545;27;45381;-72
2022/07/19 03:43:59;;;;;;;1.15;0.80;;;22.80;68.40;;;;;;5100850;27;45577;-72
2022/07/19 03:46:28;;;;;;;1.10;0.80;;;22.80;68.50;;;;;;5093183;27;47888;-71
2022/07/19 03:48:55;;;;;;;1.73;1.00;;;22.90;68.50;;;;;;5102142;27;45687;-72
2022/07/19 03:51:22;;;;;;;1.00;0.73;;;22.90;68.40;;;;;;5097480;27;45375;-71
2022/07/19 03:53:48;;;;;;;1.38;0.93;;;22.90;68.40;;;;;;5102152;27;45519;-72
2022/07/19 03:56:17;;;;;;;0.88;0.88;;;22.90;68.40;;;;;;5102421;27;47118;-72
2022/07/19 03:58:44;;;;;;;1.67;1.10;;;22.90;68.40;;;;;;5103754;27;45262;-71
2022/07/19 04:01:11;;;;;;;1.60;1.00;;;22.90;68.40;;;;;;5094214;27;45617;-71
2022/07/19 04:03:39;;;;;;;1.40;1.10;;;22.90;68.30;;;;;;5103229;27;45433;-71
2022/07/19 04:06:06;;;;;;;1.17;1.00;;;22.90;68.30;;;;;;5097002;27;45549;-71
2022/07/19 04:08:34;;;;;;;1.02;0.85;;;22.90;68.20;;;;;;5103569;27;45808;-71
2022/07/19 04:11:02;;;;;;;1.10;0.90;;;22.90;68.20;;;;;;5094389;27;45405;-71
2022/07/19 04:13:32;;;;;;;1.25;0.90;;;22.90;68.20;;;;;;5103242;27;45503;-72
2022/07/19 04:15:59;;;;;;;1.13;1.00;;;22.90;68.10;;;;;;5098673;27;45368;-71
2022/07/19 04:18:26;;;;;;;1.33;1.00;;;22.90;68.10;;;;;;5103799;27;45315;-71
2022/07/19 04:20:52;;;;;;;1.83;1.00;;;22.90;68.10;;;;;;5101298;27;45313;-71
2022/07/19 04:23:19;;;;;;;1.33;0.90;;;22.90;68.20;;;;;;5100624;27;45320;-71
2022/07/19 04:25:46;;;;;;;1.85;1.13;;;22.90;68.20;;;;;;5099321;27;46344;-71
2022/07/19 04:28:13;;;;;;;1.17;1.00;;;22.90;68.20;;;;;;5102544;27;45440;-71
2022/07/19 04:30:41;;;;;;;1.80;1.00;;;22.90;68.10;;;;;;5098577;27;45449;-72
2022/07/19 04:33:09;;;;;;;2.22;1.02;;;22.90;68.20;;;;;;5082990;28;45250;-71
2022/07/19 04:35:35;;;;;;;1.20;1.00;;;22.80;68.00;;;;;;5094198;27;46586;-72
2022/07/19 04:38:02;;;;;;;1.20;0.90;;;22.90;68.20;;;;;;5102673;27;45375;-72
2022/07/19 04:40:29;;;;;;;1.83;1.00;;;22.80;68.10;;;;;;5100380;27;45269;-71
2022/07/19 04:42:56;;;;;;;2.65;1.20;;;22.90;68.20;;;;;;5101095;27;45372;-71
2022/07/19 04:45:23;;;;;;;1.38;0.90;;;22.80;68.00;;;;;;5096156;27;47148;-71
2022/07/19 04:47:51;;;;;;;1.80;1.17;;;22.90;68.10;;;;;;5103011;27;45333;-71
2022/07/19 04:50:18;;;;;;;1.10;1.00;;;22.90;68.10;;;;;;5098418;27;45759;-71
2022/07/19 04:52:45;;;;;;;1.85;1.02;;;22.90;68.00;;;;;;5092664;27;45417;-71
2022/07/19 04:55:11;;;;;;;1.27;1.00;;;22.90;68.00;;;;;;5102777;27;48321;-71
2022/07/19 04:57:38;;;;;;;1.40;0.73;;;22.90;67.90;;;;;;5094297;27;45474;-71
2022/07/19 05:00:09;;;;;;;1.20;0.88;;;22.90;68.00;;;;;;5096625;27;45383;-71
2022/07/19 05:02:36;;;;;;;2.17;1.10;;;22.90;67.90;;;;;;5090651;27;45391;-72
2022/07/19 05:05:05;;;;;;;1.35;1.05;;;22.90;67.80;;;;;;5099886;27;47169;-71
2022/07/19 05:07:32;;;;;;;2.35;1.10;;;22.90;67.80;;;;;;5098653;27;45592;-71
2022/07/19 05:09:59;;;;;;;1.23;0.88;;;22.90;67.80;;;;;;5094311;27;45525;-71
2022/07/19 05:12:26;;;;;;;1.45;1.00;;;22.90;67.80;;;;;;5101511;27;45543;-71
2022/07/19 05:14:52;;;;;;;1.50;0.90;;;22.90;67.70;;;;;;5101047;27;46628;-71
2022/07/19 05:17:19;;;;;;;1.42;1.23;;;22.90;67.70;;;;;;5098434;27;45446;-71
2022/07/19 05:19:46;;;;;;;1.70;1.17;;;22.90;67.60;;;;;;5090387;27;45327;-71
2022/07/19 05:22:14;;;;;;;1.55;0.90;;;22.90;67.60;;;;;;5093898;27;45499;-71
2022/07/19 05:24:41;;;;;;;1.23;0.90;;;22.90;67.60;;;;;;5090378;27;46626;-71
2022/07/19 05:27:08;;;;;;;1.50;1.00;;;22.90;67.60;;;;;;5089755;27;45304;-72
2022/07/19 05:29:35;;;;;;;1.27;1.00;;;22.90;67.60;;;;;;5094212;27;45446;-73
2022/07/19 05:32:02;;;;;;;2.05;1.10;;;22.90;67.60;;;;;;5105146;27;45458;-71
2022/07/19 05:34:29;;;;;;;1.83;1.05;;;22.90;67.60;;;;;;5101467;27;47528;-72
2022/07/19 05:36:55;;;;;;;0.82;0.80;;;22.90;67.70;;;;;;5096462;27;45407;-71
2022/07/19 05:39:24;;;;;;;1.38;1.00;;;22.90;67.70;;;;;;5105565;27;45390;-71
2022/07/19 05:41:50;;;;;;;1.88;0.98;;;22.90;67.70;;;;;;5105068;27;45396;-72
2022/07/19 05:44:17;;;;;;;1.55;0.90;;;22.90;67.50;;;;;;5092460;27;47540;-72
2022/07/19 05:46:44;;;;;;;1.17;0.80;;;22.90;67.50;;;;;;5089677;27;45688;-72
2022/07/19 05:49:11;;;;;;;1.88;0.80;;;22.90;67.50;;;;;;5100897;27;45297;-70
2022/07/19 05:51:38;;;;;;;1.70;0.80;;;22.90;67.60;;;;;;5101969;27;45422;-72
2022/07/19 05:54:05;;;;;;;1.50;1.00;;;22.90;67.50;;;;;;5102381;27;45472;-71
2022/07/19 05:56:34;;;;;;;1.25;1.00;;;22.90;67.60;;;;;;5091352;27;46547;-72
2022/07/19 05:59:02;;;;;;;1.00;0.80;;;22.90;67.50;;;;;;5102657;27;45235;-74
2022/07/19 06:01:29;;;;;;;1.13;1.00;;;22.90;67.50;;;;;;5087723;27;45670;-72
2022/07/19 06:03:57;;;;;;;1.92;1.02;;;22.90;67.60;;;;;;5095903;27;45398;-72
2022/07/19 06:06:25;;;;;;;1.08;0.80;;;22.90;67.60;;;;;;5103006;27;45390;-72
2022/07/19 06:08:52;;;;;;;2.00;1.00;;;22.90;67.60;;;;;;5104010;27;45338;-73
2022/07/19 06:11:19;;;;;;;1.23;0.80;;;22.90;67.70;;;;;;5102839;27;45311;-72
2022/07/19 06:13:48;;;;;;;3.00;0.90;;;22.90;67.80;;;;;;5093626;27;46117;-73
2022/07/19 06:16:15;;;;;;;2.25;0.70;;;22.90;67.80;;;;;;5097694;27;45209;-72
2022/07/19 06:18:42;;;;;;;1.27;0.80;;;22.90;67.80;;;;;;5092018;27;45291;-74
2022/07/19 06:21:12;;;;;;;0.60;0.60;;;22.90;67.70;;;;;;5102108;27;45570;-72
2022/07/19 06:23:41;;;;;;;0.82;0.77;;;22.90;67.80;;;;;;5104350;27;48244;-72
2022/07/19 06:26:09;;;;;;;1.00;0.73;;;22.90;67.70;;;;;;5091148;27;45323;-73
2022/07/19 06:28:36;;;;;;;1.67;0.82;;;22.90;67.70;;;;;;5092216;27;45472;-73
2022/07/19 06:31:05;;;;;;;0.85;0.70;;;22.90;67.80;;;;;;5104456;27;45357;-72
2022/07/19 06:33:32;;;;;;;1.08;0.73;;;22.90;67.80;;;;;;5103342;27;46534;-72
2022/07/19 06:35:59;;;;;;;1.73;0.82;;;22.90;67.80;;;;;;5092301;27;46380;-72
2022/07/19 06:38:26;;;;;;;0.82;0.80;;;22.90;67.80;;;;;;5103496;27;45348;-72
2022/07/19 06:40:53;;;;;;;0.70;0.70;;;23.00;67.90;;;;;;5092008;27;45633;-72
2022/07/19 06:43:19;;;;;;;1.10;0.90;;;22.90;67.80;;;;;;5103648;27;45295;-72
2022/07/19 06:45:46;;;;;;;2.15;0.90;;;22.90;67.80;;;;;;5087602;27;45226;-73
2022/07/19 06:48:14;;;;;;;0.80;0.80;;;23.00;67.80;;;;;;5105525;27;45292;-73
2022/07/19 06:50:41;;;;;;;0.75;0.75;;;23.00;67.80;;;;;;5095271;27;45553;-73
2022/07/19 06:53:08;;;;;;;1.52;0.80;;;22.90;67.80;;;;;;5096390;27;45431;-72
2022/07/19 06:55:35;;;;;;;1.30;0.90;;;23.00;67.90;;;;;;5089030;27;45759;-72
2022/07/19 06:58:01;;;;;;;1.52;0.77;;;23.00;67.80;;;;;;5102800;27;45257;-72
2022/07/19 07:00:28;;;;;;;1.08;0.80;;;23.00;67.80;;;;;;5097334;27;45251;-73
2022/07/19 07:02:56;;;;;;;1.52;0.90;;;23.00;67.70;;;;;;5100348;27;46996;-73
2022/07/19 07:05:24;;;;;;;1.48;1.05;;;23.00;67.70;;;;;;5103985;27;45297;-72
2022/07/19 07:07:53;;;;;;;2.90;0.95;;;23.00;67.70;;;;;;5096403;27;45323;-73
2022/07/19 07:10:21;;;;;;;0.70;0.63;;;23.00;67.70;;;;;;5084788;27;45529;-72
2022/07/19 07:12:49;;;;;;;2.25;0.88;;;23.10;67.70;;;;;;5097891;27;46594;-72
2022/07/19 07:15:16;;;;;;;1.52;0.90;;;23.10;67.70;;;;;;5097749;27;45339;-72
2022/07/19 07:17:44;;;;;;;1.10;0.85;;;23.10;67.80;;;;;;5097808;27;45407;-71
2022/07/19 07:20:12;;;;;;;0.93;0.70;;;23.10;68.30;;;;;;5097267;27;45458;-72
2022/07/19 07:22:40;;;;;;;1.40;0.80;;;23.10;68.40;;;;;;5097958;27;46645;-72
2022/07/19 07:25:08;;;;;;;2.40;1.02;;;23.10;68.40;;;;;;5096773;27;45276;-72
2022/07/19 07:27:34;;;;;;;1.25;0.95;;;23.10;68.30;;;;;;5085205;27;45473;-72
2022/07/19 07:30:01;;;;;;;1.38;0.90;;;23.10;68.40;;;;;;5094435;27;45847;-73
2022/07/19 07:32:28;;;;;;;1.33;0.80;;;23.10;68.40;;;;;;5098453;27;46249;-71
2022/07/19 07:34:55;;;;;;;0.90;0.70;;;23.10;68.40;;;;;;5103492;27;45417;-72
2022/07/19 07:37:22;;;;;;;1.52;0.80;;;23.20;68.40;;;;;;5093338;27;45749;-72
2022/07/19 07:39:50;;;;;;;1.88;0.80;;;23.20;68.40;;;;;;5098858;27;45357;-72
2022/07/19 07:42:17;;;;;;;2.17;0.93;;;23.20;68.30;;;;;;5093710;27;47834;-74
2022/07/19 07:44:44;;;;;;;2.25;1.00;;;23.20;68.20;;;;;;5084009;27;45365;-73
2022/07/19 07:47:11;;;;;;;0.90;0.80;;;23.20;68.10;;;;;;5096386;27;45262;-72
2022/07/19 07:49:38;;;;;;;0.77;0.77;;;23.20;67.90;;;;;;5098121;27;45565;-72
2022/07/19 07:52:06;;;;;;;1.20;0.80;;;23.20;67.80;;;;;;5103185;27;46588;-72
2022/07/19 07:54:33;;;;;;;0.77;0.73;;;23.20;67.90;;;;;;5097814;27;45471;-72
2022/07/19 07:57:01;;;;;;;1.00;0.80;;;23.30;68.00;;;;;;5099497;27;45532;-72
2022/07/19 07:59:28;;;;;;;1.50;0.90;;;23.30;68.00;;;;;;5092445;27;45470;-72
2022/07/19 08:01:55;;;;;;;1.40;0.95;;;23.30;68.00;;;;;;5094244;27;46357;-72
2022/07/19 08:04:22;;;;;;;0.95;0.80;;;23.20;68.00;;;;;;5100663;27;45459;-72
2022/07/19 08:06:48;;;;;;;1.10;0.90;;;23.20;67.80;;;;;;5100848;27;45349;-72
2022/07/19 08:09:15;;;;;;;0.80;0.80;;;23.30;68.00;;;;;;5097739;27;45438;-73
2022/07/19 08:11:42;;;;;;;1.15;0.85;;;23.30;67.90;;;;;;5090781;27;47210;-72
2022/07/19 08:14:10;;;;;;;1.45;1.00;;;23.30;67.90;;;;;;5103168;27;45312;-72
2022/07/19 08:16:37;;;;;;;2.63;0.95;;;23.30;68.00;;;;;;5090945;27;45356;-72
2022/07/19 08:19:04;;;;;;;2.35;0.90;;;23.30;67.80;;;;;;5102971;27;45341;-72
2022/07/19 08:21:31;;;;;;;1.52;0.80;;;23.40;67.80;;;;;;5101998;27;46811;-72
2022/07/19 08:23:58;;;;;;;0.90;0.70;;;23.40;67.70;;;;;;5096802;27;45339;-73
2022/07/19 08:26:25;;;;;;;1.45;0.95;;;23.40;67.70;;;;;;5091483;27;45337;-73
2022/07/19 08:28:51;;;;;;;1.40;0.73;;;23.30;67.40;;;;;;5100696;27;45775;-72
2022/07/19 08:31:20;;;;;;;1.83;1.00;;;23.40;67.60;;;;;;5091966;27;46505;-72
2022/07/19 08:33:46;;;;;;;3.58;1.13;;;23.30;67.50;;;;;;5090416;27;45487;-72
2022/07/19 08:36:13;;;;;;;1.77;1.02;;;23.30;67.60;;;;;;5092645;27;45309;-71
2022/07/19 08:38:40;;;;;;;1.67;0.93;;;23.40;68.00;;;;;;5096787;27;45199;-72
2022/07/19 08:41:08;;;;;;;1.92;0.88;;;23.40;68.20;;;;;;5093106;27;46391;-72
2022/07/19 08:43:34;;;;;;;2.35;1.27;;;23.40;68.40;;;;;;5094524;27;45401;-71
2022/07/19 08:46:03;;;;;;;1.00;0.90;;;23.40;67.40;;;;;;5091018;27;45439;-72
2022/07/19 08:48:34;;;;;;;1.00;0.90;;;23.40;67.00;;;;;;5090356;27;45326;-72
2022/07/19 08:51:01;;;;;;;2.90;0.98;;;23.30;66.70;;;;;;5095926;27;47762;-73
2022/07/19 08:53:31;;;;;;;2.50;1.35;;;23.40;66.90;;;;;;5092076;27;45354;-72
2022/07/19 08:55:58;;;;;;;3.70;1.30;;;23.30;66.60;;;;;;5087241;27;45380;-72
2022/07/19 08:58:24;;;;;;;2.40;1.40;;;23.30;66.50;;;;;;5086877;27;45405;-74
2022/07/19 09:00:51;;;;;;;1.60;1.20;;;23.30;66.40;;;;;;5097602;27;46634;-72
2022/07/19 09:03:18;;;;;;;2.53;1.25;;;23.40;66.10;;;;;;5102926;27;45296;-72
2022/07/19 09:05:46;;;;;;;2.72;1.05;;;23.40;65.80;;;;;;5099931;27;45366;-72
2022/07/19 09:08:16;;;;;;;1.48;0.90;;;23.40;65.70;;;;;;5092045;27;45505;-73
2022/07/19 09:11:13;;;;;;;2.35;1.20;;;23.40;65.60;;;;;;5095390;27;46655;-73
2022/07/19 09:13:34;;;;;;;2.15;0.95;;;23.40;67.30;;;;;;5097795;27;45389;-72
2022/07/19 09:16:01;;;;;;;2.67;1.13;;;23.40;66.80;;;;;;5104694;27;45449;-72
2022/07/19 09:18:30;;;;;;;1.70;1.02;;;23.40;66.90;;;;;;5095299;27;45515;-73
2022/07/19 09:21:02;;;;;;;1.30;0.95;;;23.50;67.00;;;;;;5090874;27;48683;-75
2022/07/19 09:23:30;;;;;;;7.53;1.40;;;23.40;67.30;;;;;;5108861;27;45327;-76
2022/07/19 09:25:59;;;;;;;10.43;1.60;;;23.50;69.70;;;;;;5105156;27;45193;-73
2022/07/19 09:28:29;;;;;;;1.73;0.80;;;23.50;70.00;;;;;;5094561;27;45379;-73
2022/07/19 09:30:58;;;;;;;49.83;3.95;;;23.50;71.40;;;;;;5097593;27;48187;-72
2022/07/19 09:33:27;;;;;;;5.70;1.52;;;23.60;71.20;;;;;;5095950;27;45781;-72
2022/07/19 09:35:56;;;;;;;7.78;1.35;;;23.80;70.30;;;;;;5099642;27;45289;-74
2022/07/19 09:38:28;;;;;;;6.18;1.20;;;23.90;70.10;;;;;;5095989;27;45786;-72
2022/07/19 09:41:09;;;;;;;6.47;1.52;;;24.00;70.20;;;;;;5090174;27;47304;-72
2022/07/19 09:43:50;;;;;;;3.42;1.23;;;24.20;70.20;;;;;;5094477;27;45424;-72
2022/07/19 09:46:29;;;;;;;3.58;1.20;;;24.40;70.40;;;;;;5093969;27;45330;-72
2022/07/19 09:49:05;;;;;;;4.40;1.48;;;24.60;70.30;;;;;;5088961;27;45388;-73
2022/07/19 09:51:34;;;;;;;4.70;1.30;;;24.70;70.80;;;;;;5092890;27;45469;-74
2022/07/19 09:54:03;;;;;;;3.80;1.30;;;24.70;70.90;;;;;;5104059;27;45304;-74
2022/07/19 09:56:30;;;;;;;7.63;1.73;;;24.90;70.60;;;;;;5101630;27;45309;-74
2022/07/19 09:58:58;;;;;;;8.45;1.42;;;25.00;69.70;;;;;;5106817;27;45359;-75
2022/07/19 10:01:25;;;;;;;6.20;1.23;;;25.10;69.70;;;;;;5100211;27;45377;-74
2022/07/19 10:03:56;;;;;;;7.15;1.90;;;25.20;70.00;;;;;;5105864;27;45386;-72
2022/07/19 10:06:23;;;;;;;7.22;2.00;;;25.20;69.80;;;;;;5105749;27;45220;-72
2022/07/19 10:08:51;;;;;;;13.82;1.85;;;25.30;70.30;;;;;;5101448;27;45561;-71
2022/07/19 10:11:21;;;;;;;12.40;1.90;;;25.30;71.50;;;;;;5105640;27;46575;-72
2022/07/19 10:13:49;;;;;;;9.27;1.95;;;25.50;70.90;;;;;;5103274;27;45428;-71
2022/07/19 10:16:22;;;;;;;7.35;1.88;;;25.50;72.10;;;;;;5097080;27;45414;-74
2022/07/19 10:18:57;;;;;;;13.95;2.15;;;25.50;73.30;;;;;;5089341;27;45416;-74
2022/07/19 10:21:23;;;;;;;11.55;1.70;;;25.50;72.80;;;;;;5088843;27;46266;-72
2022/07/19 10:23:52;;;;;;;10.10;1.98;;;25.50;70.30;;;;;;5094641;27;45420;-73
2022/07/19 10:26:37;;;;;;;8.57;1.95;;;25.40;69.30;;;;;;5091090;27;45383;-72
2022/07/19 10:29:09;;;;;;;11.27;2.15;;;25.20;69.00;;;;;;5087364;27;45355;-72
2022/07/19 10:31:36;;;;;;;3.65;1.50;;;25.00;69.20;;;;;;5088004;27;45472;-72
2022/07/19 10:34:05;;;;;;;7.00;1.80;;;24.70;69.60;;;;;;5093403;27;45415;-71
2022/07/19 10:36:36;;;;;;;8.82;1.85;;;24.60;69.80;;;;;;5088568;27;45452;-72
2022/07/19 10:39:26;;;;;;;7.40;1.45;;;24.50;69.90;;;;;;5090784;27;45638;-72
2022/07/19 10:42:22;;;;;;;7.65;1.52;;;24.40;69.80;;;;;;5085844;27;47502;-72
2022/07/19 10:45:14;;;;;;;12.00;2.70;;;24.30;69.80;;;;;;5047461;27;45388;-73
2022/07/19 10:48:16;;;;;;;78.05;8.75;;;24.30;74.70;;;;;;5092544;27;45247;-74
2022/07/19 10:50:52;;;;;;;10.35;2.83;;;24.40;77.20;;;;;;5094454;27;45612;-69
2022/07/19 10:53:59;;;;;;;13.50;2.00;;;24.30;73.70;;;;;;5099405;27;45388;-70
2022/07/19 10:56:59;;;;;;;13.65;2.60;;;24.40;74.60;;;;;;5097136;27;45417;-71
2022/07/19 10:59:38;;;;;;;15.65;2.90;;;24.40;75.70;;;;;;5093589;27;45473;-73
2022/07/19 11:02:05;;;;;;;11.63;2.25;;;24.40;77.60;;;;;;5099481;27;45414;-73
2022/07/19 11:04:33;;;;;;;15.32;2.15;;;24.40;77.00;;;;;;5095416;27;48524;-73
2022/07/19 11:07:15;;;;;;;10.82;2.03;;;24.50;78.10;;;;;;5092708;27;45319;-73
2022/07/19 11:09:50;;;;;;;8.68;1.58;;;24.50;78.30;;;;;;5093886;27;45592;-73
2022/07/19 11:12:31;;;;;;;10.38;2.28;;;24.70;78.90;;;;;;5092234;27;45301;-72
2022/07/19 11:15:01;;;;;;;5.07;1.75;;;24.80;78.10;;;;;;5090682;27;46793;-74
2022/07/19 11:17:28;;;;;;;5.80;1.98;;;24.90;78.30;;;;;;5100251;27;45748;-73
2022/07/19 11:20:00;;;;;;;4.22;1.83;;;24.90;77.60;;;;;;5104211;27;45330;-73
2022/07/19 11:22:27;;;;;;;4.40;1.63;;;24.90;77.80;;;;;;5085960;27;45475;-73
2022/07/19 11:24:54;;;;;;;9.35;1.85;;;25.00;78.30;;;;;;5084736;27;46299;-73
2022/07/19 11:27:21;;;;;;;5.22;1.77;;;25.00;77.40;;;;;;5099180;27;45245;-74
2022/07/19 11:29:54;;;;;;;7.50;1.85;;;25.00;77.80;;;;;;5097501;27;45142;-74
2022/07/19 11:32:23;;;;;;;7.55;1.65;;;25.00;77.40;;;;;;5090170;27;45409;-74
2022/07/19 11:34:58;;;;;;;3.15;1.38;;;25.10;77.50;;;;;;5099631;27;46619;-73
2022/07/19 11:37:29;;;;;;;5.32;1.42;;;25.10;77.40;;;;;;5088561;27;45662;-73
2022/07/19 11:39:57;;;;;;;5.78;1.25;;;25.10;76.50;;;;;;5087224;27;45313;-73
2022/07/19 11:42:33;;;;;;;6.60;1.50;;;25.10;76.80;;;;;;5088117;27;45804;-72
2022/07/19 11:45:00;;;;;;;7.57;1.83;;;25.10;76.20;;;;;;5099673;27;45404;-74
2022/07/19 11:47:33;;;;;;;6.05;1.02;;;25.10;76.70;;;;;;5096462;27;45323;-73
2022/07/19 11:50:05;;;;;;;7.82;1.90;;;25.20;76.30;;;;;;5099179;27;45287;-72
2022/07/19 11:52:52;;;;;;;5.00;1.80;;;25.10;75.90;;;;;;5104371;27;45569;-73
2022/07/19 11:55:20;;;;;;;7.20;1.90;;;25.10;75.90;;;;;;5088744;27;45640;-73
2022/07/19 11:57:48;;;;;;;9.25;2.58;;;25.10;75.40;;;;;;5076678;27;45477;-74
2022/07/19 12:00:16;;;;;;;6.13;2.20;;;25.10;75.70;;;;;;5103125;27;45436;-75
2022/07/19 12:03:04;;;;;;;9.23;2.60;;;25.10;75.60;;;;;;5091271;27;45335;-74
2022/07/19 12:05:33;;;;;;;7.80;2.97;;;25.10;75.40;;;;;;5102475;27;48217;-74
2022/07/19 12:08:02;;;;;;;7.20;2.75;;;25.10;75.70;;;;;;5098515;27;45483;-75
2022/07/19 12:10:42;;;;;;;10.50;2.63;;;25.10;75.00;;;;;;5096395;27;45573;-74
2022/07/19 12:13:11;;;;;;;7.43;2.25;;;25.10;74.60;;;;;;5095833;27;45560;-75
2022/07/19 12:15:51;;;;;;;8.32;2.40;;;25.00;74.80;;;;;;5098521;27;47609;-74
2022/07/19 12:18:21;;;;;;;3.42;1.60;;;25.00;75.00;;;;;;5101938;27;45457;-74
2022/07/19 12:21:29;;;;;;;7.75;2.10;;;24.70;73.90;;;;;;5102615;27;45257;-75
2022/07/19 12:24:20;;;;;;;4.03;1.75;;;24.50;73.20;;;;;;5049417;27;45780;-73
2022/07/19 12:26:59;;;;;;;4.43;1.70;;;24.40;72.80;;;;;;5095701;27;46418;-74
2022/07/19 12:29:28;;;;;;;5.53;1.58;;;24.30;72.40;;;;;;5099640;27;45422;-73
2022/07/19 12:31:59;;;;;;;5.28;2.10;;;24.20;72.90;;;;;;5099751;27;45380;-73
2022/07/19 12:34:27;;;;;;;6.90;1.60;;;24.20;73.00;;;;;;5093554;27;45601;-73
2022/07/19 12:36:55;;;;;;;4.75;1.80;;;24.10;73.20;;;;;;5101179;27;47650;-73
2022/07/19 12:39:24;;;;;;;3.17;1.35;;;24.10;73.20;;;;;;5089575;27;45409;-75
2022/07/19 12:41:56;;;;;;;57.22;8.98;;;24.10;74.80;;;;;;5102668;27;45335;-74
2022/07/19 12:44:23;;;;;;;13.65;3.10;;;24.10;77.00;;;;;;5092657;27;45695;-74
2022/07/19 12:46:50;;;;;;;15.00;2.42;;;24.10;75.40;;;;;;5093574;27;46489;-73
2022/07/19 12:49:17;;;;;;;9.93;2.05;;;24.10;74.60;;;;;;5086236;27;45317;-73
2022/07/19 12:51:45;;;;;;;19.33;2.80;;;24.00;74.90;;;;;;5103963;27;45464;-73
2022/07/19 12:54:12;;;;;;;5.63;2.05;;;24.00;74.20;;;;;;5091778;27;45445;-73